Terminal Aerodrome Forecast
Issued by NWS

Current Version | Previous Version | Text Only | Print | Product List | Glossary Off
Versions: 1 2 3 4 5 6 7 8 9 10 11 12 13 14 15 16 17 18

000
FTUS41 KPBZ 191700
TAFMGW
TAF
KMGW 191725Z 1918/2018 19011G20KT P6SM BKN080
     FM200500 22010KT P6SM BKN025
     FM201400 24011G18KT P6SM BKN035=

USA.gov is the U.S. government's official web portal to all federal, state and local government web resources and services.